createdAt,value
2019-02-24T00:00:26.044Z,0.31
2019-02-24T00:01:26.690Z,0.33
2019-02-24T00:02:26.774Z,0.33
2019-02-24T00:03:26.995Z,0.33
2019-02-24T00:04:27.007Z,0.31
2019-02-24T00:05:27.211Z,0.31
2019-02-24T00:06:27.617Z,0.32
2019-02-24T00:07:27.942Z,0.32
2019-02-24T00:08:28.457Z,0.29
2019-02-24T00:09:28.253Z,0.29
2019-02-24T00:10:28.664Z,0.26
2019-02-24T00:11:28.954Z,0.24
2019-02-24T00:12:29.295Z,0.21
2019-02-24T00:13:30.023Z,0.21
2019-02-24T00:14:29.923Z,0.19
2019-02-24T00:15:30.255Z,0.18
2019-02-24T00:16:30.769Z,0.17
2019-02-24T00:17:30.558Z,0.17
2019-02-24T00:18:31.090Z,0.16
2019-02-24T00:19:30.980Z,0.15
2019-02-24T00:20:31.442Z,0.14
2019-02-24T00:21:31.506Z,0.12
2019-02-24T00:22:31.793Z,0.09
2019-02-24T00:23:31.934Z,0.06
2019-02-24T00:24:32.241Z,0.05
2019-02-24T00:25:32.350Z,0.05
2019-02-24T00:26:32.557Z,0.05
2019-02-24T00:27:32.768Z,0.05
2019-02-24T00:28:32.878Z,0.05
2019-02-24T00:29:32.893Z,0.03
2019-02-24T00:30:33.204Z,0.03
2019-02-24T00:31:33.211Z,0.02
2019-02-24T00:32:34.417Z,0.02
2019-02-24T00:33:33.320Z,0.02
2019-02-24T00:34:33.644Z,0.02
2019-02-24T00:35:34.158Z,0.02
2019-02-24T00:36:33.535Z,0.04
2019-02-24T00:37:34.991Z,0.03
2019-02-24T00:38:35.201Z,-0.01
2019-02-24T00:39:35.624Z,-0.04
2019-02-24T00:40:36.133Z,-0.06
2019-02-24T00:41:36.047Z,-0.06
2019-02-24T00:42:36.282Z,-0.06
2019-02-24T00:43:36.579Z,-0.04
2019-02-24T00:44:36.784Z,-0.04
2019-02-24T00:45:37.085Z,-0.05
2019-02-24T00:46:37.126Z,-0.04
2019-02-24T00:47:37.414Z,-0.04
2019-02-24T00:48:37.619Z,-0.05
2019-02-24T00:49:37.632Z,-0.10
2019-02-24T00:50:37.952Z,-0.15
2019-02-24T00:51:38.357Z,-0.21
2019-02-24T00:52:38.668Z,-0.26
2019-02-24T00:53:39.085Z,-0.30
2019-02-24T00:54:39.326Z,-0.33
2019-02-24T00:55:39.611Z,-0.39
2019-02-24T00:56:39.977Z,-0.41
2019-02-24T00:57:40.210Z,-0.46
2019-02-24T00:58:40.346Z,-0.46
2019-02-24T00:59:40.774Z,-0.49
2019-02-24T01:00:40.981Z,-0.49
2019-02-24T01:01:41.392Z,-0.51
2019-02-24T01:02:41.808Z,-0.52
2019-02-24T01:03:42.042Z,-0.50
2019-02-24T01:04:42.443Z,-0.50
2019-02-24T01:05:42.619Z,-0.49
2019-02-24T01:06:42.920Z,-0.50
2019-02-24T01:07:43.069Z,-0.50
2019-02-24T01:08:43.306Z,-0.50
2019-02-24T01:09:43.810Z,-0.50
2019-02-24T01:10:44.007Z,-0.50
2019-02-24T01:11:44.016Z,-0.50
2019-02-24T01:12:44.535Z,-0.52
2019-02-24T01:13:44.131Z,-0.53
2019-02-24T01:15:44.460Z,-0.54
2019-02-24T01:16:44.888Z,-0.55
2019-02-24T01:17:45.288Z,-0.65
2019-02-24T01:18:45.601Z,-0.68
2019-02-24T01:19:45.909Z,-0.72
2019-02-24T01:20:46.123Z,-0.76
2019-02-24T01:21:46.536Z,-0.80
2019-02-24T01:22:46.442Z,-0.82
2019-02-24T01:23:46.988Z,-0.87
2019-02-24T01:24:47.069Z,-0.93
2019-02-24T01:25:47.286Z,-0.98
2019-02-24T01:26:47.501Z,-0.99
2019-02-24T01:27:47.911Z,-1.00
2019-02-24T01:28:48.118Z,-1.03
2019-02-24T01:29:48.233Z,-1.04
2019-02-24T01:30:48.244Z,-1.04
2019-02-24T01:32:48.165Z,-1.05
2019-02-24T01:33:48.682Z,-1.10
2019-02-24T01:34:48.670Z,-1.12
2019-02-24T01:35:49.405Z,-1.15
2019-02-24T01:36:49.707Z,-1.17
2019-02-24T01:37:50.018Z,-1.20
2019-02-24T01:38:50.641Z,-1.24
2019-02-24T01:39:50.551Z,-1.25
2019-02-24T01:40:51.176Z,-1.28
2019-02-24T01:41:51.174Z,-1.27
2019-02-24T01:42:50.569Z,-1.28
2019-02-24T01:43:51.392Z,-1.28
2019-02-24T01:44:51.503Z,-1.29
2019-02-24T01:45:51.931Z,-1.31
2019-02-24T01:46:52.234Z,-1.32
2019-02-24T01:47:52.543Z,-1.33
2019-02-24T01:48:52.977Z,-1.33
2019-02-24T01:49:53.071Z,-1.29
2019-02-24T01:50:53.484Z,-1.25
2019-02-24T01:51:54.015Z,-1.22
2019-02-24T01:52:53.912Z,-1.21
2019-02-24T01:53:54.241Z,-1.20
2019-02-24T01:54:54.638Z,-1.19
2019-02-24T01:55:54.956Z,-1.14
2019-02-24T01:56:55.275Z,-1.13
2019-02-24T01:57:55.541Z,-1.11
2019-02-24T01:58:55.790Z,-1.10
2019-02-24T01:59:55.798Z,-1.11
2019-02-24T02:00:56.111Z,-1.13
2019-02-24T02:01:56.459Z,-1.15
2019-02-24T02:02:56.841Z,-1.18
2019-02-24T02:03:57.155Z,-1.21
2019-02-24T02:04:58.563Z,-1.25
2019-02-24T02:05:57.713Z,-1.21
2019-02-24T02:06:58.045Z,-1.21
2019-02-24T02:07:58.294Z,-1.15
2019-02-24T02:08:58.316Z,-1.09
2019-02-24T02:09:58.939Z,-1.07
2019-02-24T02:10:59.099Z,-0.94
2019-02-24T02:11:59.163Z,-0.93
2019-02-24T02:12:59.300Z,-0.86
2019-02-24T02:13:59.581Z,-0.81
2019-02-24T02:15:00.165Z,-0.78
2019-02-24T02:16:00.002Z,-0.74
2019-02-24T02:17:00.423Z,-0.75
2019-02-24T02:18:00.698Z,-0.78
2019-02-24T02:19:01.173Z,-0.78
2019-02-24T02:20:01.459Z,-0.82
2019-02-24T02:21:01.985Z,-0.84
2019-02-24T02:22:02.401Z,-0.84
2019-02-24T02:23:02.733Z,-0.81
2019-02-24T02:24:02.812Z,-0.80
2019-02-24T02:25:02.922Z,-0.81
2019-02-24T02:26:03.032Z,-0.86
2019-02-24T02:27:03.797Z,-0.87
2019-02-24T02:28:03.759Z,-0.91
2019-02-24T02:29:03.654Z,-0.92
2019-02-24T02:30:04.663Z,-0.92
2019-02-24T02:31:05.009Z,-0.92
2019-02-24T02:32:05.019Z,-0.91
2019-02-24T02:33:05.031Z,-0.92
2019-02-24T02:34:06.057Z,-0.93
2019-02-24T02:35:05.656Z,-0.90
2019-02-24T02:36:05.865Z,-0.88
2019-02-24T02:37:05.765Z,-0.72
2019-02-24T02:38:06.702Z,-0.64
2019-02-24T02:39:07.327Z,-0.55
2019-02-24T02:40:07.123Z,-0.47
2019-02-24T02:41:07.431Z,-0.45
2019-02-24T02:42:07.740Z,-0.45
2019-02-24T02:43:08.171Z,-0.49
2019-02-24T02:44:08.274Z,-0.56
2019-02-24T02:45:08.484Z,-0.62
2019-02-24T02:46:08.970Z,-0.62
2019-02-24T02:47:09.208Z,-0.64
2019-02-24T02:48:09.738Z,-0.65
2019-02-24T02:49:09.633Z,-0.65
2019-02-24T02:50:09.747Z,-0.65
2019-02-24T02:51:10.037Z,-0.66
2019-02-24T02:52:10.269Z,-0.69
2019-02-24T02:53:10.391Z,-0.73
2019-02-24T02:54:10.609Z,-0.74
2019-02-24T02:55:10.804Z,-0.75
2019-02-24T02:56:13.053Z,-0.76
2019-02-24T02:57:11.238Z,-0.78
2019-02-24T02:58:11.440Z,-0.81
2019-02-24T02:59:11.748Z,-0.84
2019-02-24T03:00:12.164Z,-0.87
2019-02-24T03:01:11.169Z,-0.93
2019-02-24T03:02:11.512Z,-0.98
2019-02-24T03:03:13.130Z,-1.02
2019-02-24T03:04:13.110Z,-1.04
2019-02-24T03:05:13.222Z,-1.05
2019-02-24T03:06:13.635Z,-1.05
2019-02-24T03:07:13.653Z,-1.04
2019-02-24T03:08:13.857Z,-1.00
2019-02-24T03:09:14.067Z,-0.99
2019-02-24T03:10:14.384Z,-1.00
2019-02-24T03:11:14.915Z,-1.00
2019-02-24T03:12:14.809Z,-1.04
2019-02-24T03:13:15.321Z,-1.08
2019-02-24T03:14:15.020Z,-1.09
2019-02-24T03:15:15.543Z,-1.18
2019-02-24T03:16:15.645Z,-1.24
2019-02-24T03:17:15.663Z,-1.27
2019-02-24T03:18:16.174Z,-1.29
2019-02-24T03:19:16.178Z,-1.33
2019-02-24T03:20:16.296Z,-1.34
2019-02-24T03:21:16.041Z,-1.37
2019-02-24T03:22:16.415Z,-1.41
2019-02-24T03:23:16.616Z,-1.43
2019-02-24T03:24:16.831Z,-1.45
2019-02-24T03:25:17.034Z,-1.46
2019-02-24T03:26:17.350Z,-1.47
2019-02-24T03:27:17.570Z,-1.51
2019-02-24T03:28:17.774Z,-1.51
2019-02-24T03:29:18.199Z,-1.54
2019-02-24T03:30:18.299Z,-1.55
2019-02-24T03:31:18.410Z,-1.58
2019-02-24T03:32:18.058Z,-1.59
2019-02-24T03:33:18.729Z,-1.59
2019-02-24T03:34:18.941Z,-1.56
2019-02-24T03:35:19.253Z,-1.55
2019-02-24T03:36:19.260Z,-1.52
2019-02-24T03:37:19.483Z,-1.50
2019-02-24T03:38:19.786Z,-1.47
2019-02-24T03:39:20.438Z,-1.41
2019-02-24T03:40:20.206Z,-1.35
2019-02-24T03:41:20.522Z,-1.29
2019-02-24T03:42:20.846Z,-1.25
2019-02-24T03:43:21.254Z,-1.23
2019-02-24T03:44:21.765Z,-1.13
2019-02-24T03:45:21.470Z,-1.14
2019-02-24T03:46:21.993Z,-1.12
2019-02-24T03:47:21.745Z,-1.12
2019-02-24T03:48:22.160Z,-1.06
2019-02-24T03:49:22.722Z,-1.04
2019-02-24T03:50:22.638Z,-0.92
2019-02-24T03:51:22.840Z,-0.86
2019-02-24T03:52:22.950Z,-0.82
2019-02-24T03:53:23.168Z,-0.86
2019-02-24T03:54:23.603Z,-0.88
2019-02-24T03:55:23.788Z,-0.94
2019-02-24T03:56:24.283Z,-0.98
2019-02-24T03:57:24.826Z,-1.03
2019-02-24T03:58:24.633Z,-1.07
2019-02-24T03:59:24.939Z,-1.10
2019-02-24T04:00:25.347Z,-1.11
2019-02-24T04:01:25.774Z,-1.13
2019-02-24T04:02:26.288Z,-1.19
2019-02-24T04:03:25.892Z,-1.20
2019-02-24T04:04:25.995Z,-1.21
2019-02-24T04:05:26.212Z,-1.22
2019-02-24T04:06:26.726Z,-1.24
2019-02-24T04:07:26.936Z,-1.27
2019-02-24T04:08:27.256Z,-1.29
2019-02-24T04:09:27.691Z,-1.33
2019-02-24T04:10:27.980Z,-1.34
2019-02-24T04:11:28.396Z,-1.33
2019-02-24T04:12:28.712Z,-1.29
2019-02-24T04:13:28.930Z,-1.26
2019-02-24T04:14:29.339Z,-1.28
2019-02-24T04:15:29.754Z,-1.28
2019-02-24T04:16:30.276Z,-1.24
2019-02-24T04:17:30.279Z,-1.17
2019-02-24T04:18:30.291Z,-1.10
2019-02-24T04:19:30.395Z,-1.09
2019-02-24T04:20:30.400Z,-1.03
2019-02-24T04:21:30.304Z,-1.02
2019-02-24T04:22:30.823Z,-1.03
2019-02-24T04:23:30.837Z,-1.04
2019-02-24T04:24:30.936Z,-1.04
2019-02-24T04:25:30.841Z,-1.06
2019-02-24T04:26:31.464Z,-1.06
2019-02-24T04:27:31.267Z,-1.06
2019-02-24T04:28:31.487Z,-1.05
2019-02-24T04:29:31.687Z,-1.04
2019-02-24T04:30:32.106Z,-1.03
2019-02-24T04:31:32.519Z,-1.04
2019-02-24T04:32:32.535Z,-1.05
2019-02-24T04:33:32.542Z,-1.06
2019-02-24T04:34:32.674Z,-1.12
2019-02-24T04:35:33.368Z,-1.14
2019-02-24T04:36:33.579Z,-1.18
2019-02-24T04:37:33.848Z,-1.19
2019-02-24T04:38:34.009Z,-1.26
2019-02-24T04:39:34.316Z,-1.29
2019-02-24T04:40:34.323Z,-1.32
2019-02-24T04:41:34.559Z,-1.34
2019-02-24T04:42:34.849Z,-1.34
2019-02-24T04:43:35.275Z,-1.22
2019-02-24T04:44:35.577Z,-1.16
2019-02-24T04:45:36.200Z,-1.12
2019-02-24T04:46:36.206Z,-1.06
2019-02-24T04:47:36.624Z,-1.06
2019-02-24T04:48:37.014Z,-0.98
2019-02-24T04:49:37.246Z,-0.93
2019-02-24T04:50:37.765Z,-0.92
2019-02-24T04:51:37.778Z,-0.90
2019-02-24T04:52:37.780Z,-0.87
2019-02-24T04:53:37.377Z,-0.66
2019-02-24T04:54:37.505Z,-0.57
2019-02-24T04:55:37.799Z,-0.45
2019-02-24T04:56:37.906Z,-0.43
2019-02-24T04:57:38.116Z,-0.32
2019-02-24T04:58:38.223Z,-0.28
2019-02-24T04:59:38.348Z,-0.27
2019-02-24T05:00:38.666Z,-0.26
2019-02-24T05:01:39.068Z,-0.22
2019-02-24T05:02:39.378Z,-0.16
2019-02-24T05:04:39.711Z,-0.12
2019-02-24T05:05:40.015Z,-0.07
2019-02-24T05:06:40.327Z,-0.03
2019-02-24T05:07:40.704Z,-0.05
2019-02-24T05:08:40.650Z,-0.03
2019-02-24T05:09:41.502Z,-0.06
2019-02-24T05:10:42.095Z,-0.07
2019-02-24T05:11:41.718Z,-0.09
2019-02-24T05:12:42.015Z,-0.05
2019-02-24T05:13:42.319Z,-0.04
2019-02-24T05:14:42.539Z,-0.07
2019-02-24T05:15:42.847Z,-0.05
2019-02-24T05:16:43.195Z,-0.06
2019-02-24T05:17:43.569Z,-0.09
2019-02-24T05:18:43.989Z,-0.15
2019-02-24T05:19:44.106Z,-0.17
2019-02-24T05:20:44.621Z,-0.22
2019-02-24T05:21:44.525Z,-0.25
2019-02-24T05:22:44.834Z,-0.27
2019-02-24T05:23:45.250Z,-0.32
2019-02-24T05:24:45.880Z,-0.40
2019-02-24T05:25:45.880Z,-0.42
2019-02-24T05:26:46.273Z,-0.52
2019-02-24T05:27:46.402Z,-0.56
2019-02-24T05:28:46.619Z,-0.57
2019-02-24T05:29:47.039Z,-0.59
2019-02-24T05:30:47.426Z,-0.56
2019-02-24T05:31:47.862Z,-0.58
2019-02-24T05:32:47.969Z,-0.54
2019-02-24T05:33:48.230Z,-0.49
2019-02-24T05:34:48.297Z,-0.42
2019-02-24T05:35:48.568Z,-0.34
2019-02-24T05:36:48.720Z,-0.28
2019-02-24T05:37:49.027Z,-0.22
2019-02-24T05:38:48.902Z,-0.22
2019-02-24T05:39:49.964Z,-0.20
2019-02-24T05:40:49.537Z,-0.23
2019-02-24T05:41:50.068Z,-0.25
2019-02-24T05:42:50.186Z,-0.25
2019-02-24T05:43:50.301Z,-0.22
2019-02-24T05:44:50.412Z,-0.21
2019-02-24T05:45:50.427Z,-0.24
2019-02-24T05:46:50.417Z,-0.24
2019-02-24T05:47:50.733Z,-0.22
2019-02-24T05:48:50.643Z,-0.17
2019-02-24T05:49:51.158Z,-0.15
2019-02-24T05:50:51.173Z,-0.15
2019-02-24T05:51:51.064Z,-0.15
2019-02-24T05:52:51.172Z,-0.14
2019-02-24T05:53:51.082Z,-0.11
2019-02-24T05:54:52.088Z,-0.11
2019-02-24T05:55:52.332Z,-0.13
2019-02-24T05:56:52.631Z,-0.17
2019-02-24T05:57:52.948Z,-0.25
2019-02-24T05:58:53.263Z,-0.28
2019-02-24T05:59:55.420Z,-0.31
2019-02-24T06:00:53.691Z,-0.35
2019-02-24T06:01:53.796Z,-0.38
2019-02-24T06:02:54.209Z,-0.40
2019-02-24T06:03:54.524Z,-0.44
2019-02-24T06:04:57.805Z,-0.49
2019-02-24T06:05:55.162Z,-0.52
2019-02-24T06:06:55.771Z,-0.56
2019-02-24T06:07:55.777Z,-0.60
2019-02-24T06:08:56.195Z,-0.60
2019-02-24T06:09:56.492Z,-0.61
2019-02-24T06:10:56.935Z,-0.62
2019-02-24T06:11:57.240Z,-0.63
2019-02-24T06:12:57.755Z,-0.67
2019-02-24T06:13:57.658Z,-0.66
2019-02-24T06:14:58.078Z,-0.65
2019-02-24T06:15:58.139Z,-0.64
2019-02-24T06:16:58.486Z,-0.63
2019-02-24T06:17:58.983Z,-0.61
2019-02-24T06:18:59.432Z,-0.58
2019-02-24T06:19:59.164Z,-0.46
2019-02-24T06:20:59.459Z,-0.45
2019-02-24T06:21:59.662Z,-0.48
2019-02-24T06:23:00.278Z,-0.41
2019-02-24T06:24:00.284Z,-0.33
2019-02-24T06:25:00.213Z,-0.32
2019-02-24T06:26:00.405Z,-0.27
2019-02-24T06:27:00.824Z,-0.29
2019-02-24T06:28:01.234Z,-0.29
2019-02-24T06:29:01.548Z,-0.22
2019-02-24T06:30:04.872Z,-0.15
2019-02-24T06:31:01.974Z,-0.11
2019-02-24T06:32:02.197Z,-0.10
2019-02-24T06:33:02.596Z,-0.06
2019-02-24T06:34:02.903Z,-0.05
2019-02-24T06:35:03.124Z,-0.04
2019-02-24T06:36:03.437Z,-0.03
2019-02-24T06:37:03.366Z,-0.01
2019-02-24T06:38:03.539Z,0.02
2019-02-24T06:39:04.074Z,0.05
2019-02-24T06:40:04.279Z,0.09
2019-02-24T06:41:03.884Z,0.11
2019-02-24T06:42:04.406Z,0.14
2019-02-24T06:43:04.608Z,0.16
2019-02-24T06:44:03.888Z,0.19
2019-02-24T06:45:05.232Z,0.22
2019-02-24T06:46:05.445Z,0.25
2019-02-24T06:47:05.870Z,0.28
2019-02-24T06:48:05.211Z,0.31
2019-02-24T06:49:06.185Z,0.35
2019-02-24T06:50:06.703Z,0.40
2019-02-24T06:51:06.512Z,0.44
2019-02-24T06:52:06.728Z,0.49
2019-02-24T06:53:07.336Z,0.54
2019-02-24T06:54:07.345Z,0.59
2019-02-24T06:55:06.975Z,0.64
2019-02-24T06:56:06.640Z,0.70
2019-02-24T06:57:06.865Z,0.75
2019-02-24T06:58:07.052Z,0.81
2019-02-24T06:59:07.302Z,0.86
2019-02-24T07:00:13.789Z,0.92
2019-02-24T07:01:07.597Z,0.98
2019-02-24T07:02:08.734Z,1.03
2019-02-24T07:03:08.224Z,1.09
2019-02-24T07:04:09.055Z,1.15
2019-02-24T07:05:09.241Z,1.21
2019-02-24T07:06:09.982Z,1.27
2019-02-24T07:07:09.792Z,1.33
2019-02-24T07:08:09.794Z,1.39
2019-02-24T07:09:10.215Z,1.44
2019-02-24T07:10:10.420Z,1.50
2019-02-24T07:11:10.734Z,1.55
2019-02-24T07:12:10.335Z,1.60
2019-02-24T07:13:11.045Z,1.65
2019-02-24T07:14:11.056Z,1.71
2019-02-24T07:15:11.461Z,1.76
2019-02-24T07:16:11.888Z,1.81
2019-02-24T07:17:12.112Z,1.86
2019-02-24T07:18:12.209Z,1.91
2019-02-24T07:19:12.316Z,1.96
2019-02-24T07:20:12.733Z,2.02
2019-02-24T07:21:12.947Z,2.07
2019-02-24T07:22:13.065Z,2.12
2019-02-24T07:23:13.572Z,2.17
2019-02-24T07:24:13.474Z,2.22
2019-02-24T07:25:13.787Z,2.27
2019-02-24T07:26:14.205Z,2.32
2019-02-24T07:27:14.838Z,2.37
2019-02-24T07:28:14.857Z,2.43
2019-02-24T07:29:14.838Z,2.48
2019-02-24T07:30:23.174Z,2.54
2019-02-24T07:31:14.853Z,2.60
2019-02-24T07:32:16.607Z,2.67
2019-02-24T07:33:15.179Z,2.73
2019-02-24T07:34:15.283Z,2.80
2019-02-24T07:35:15.405Z,2.85
2019-02-24T07:36:15.290Z,2.93
2019-02-24T07:37:15.621Z,2.99
2019-02-24T07:38:16.130Z,3.06
2019-02-24T07:39:15.932Z,3.14
2019-02-24T07:40:16.449Z,3.21
2019-02-24T07:41:16.353Z,3.29
2019-02-24T07:42:16.872Z,3.37
2019-02-24T07:43:16.788Z,3.45
2019-02-24T07:44:17.222Z,3.52
2019-02-24T07:45:17.816Z,3.59
2019-02-24T07:46:17.843Z,3.66
2019-02-24T07:47:18.185Z,3.73
2019-02-24T07:48:18.295Z,3.80
2019-02-24T07:49:18.399Z,3.86
2019-02-24T07:50:18.813Z,3.92
2019-02-24T07:51:18.819Z,3.99
2019-02-24T07:52:18.622Z,4.07
2019-02-24T07:53:19.045Z,4.14
2019-02-24T07:54:19.252Z,4.22
2019-02-24T07:55:19.773Z,4.27
2019-02-24T07:56:19.365Z,4.31
2019-02-24T07:57:19.780Z,4.35
2019-02-24T07:58:20.310Z,4.39
2019-02-24T07:59:20.232Z,4.44
2019-02-24T08:00:20.725Z,4.50
2019-02-24T08:01:21.141Z,4.57
2019-02-24T08:02:21.456Z,4.61
2019-02-24T08:03:21.675Z,4.66
2019-02-24T08:04:21.877Z,4.71
2019-02-24T08:05:21.988Z,4.76
2019-02-24T08:06:22.253Z,4.81
2019-02-24T08:07:22.304Z,4.88
2019-02-24T08:08:22.404Z,4.95
2019-02-24T08:09:22.623Z,5.01
2019-02-24T08:10:22.734Z,5.06
2019-02-24T08:11:23.147Z,5.11
2019-02-24T08:12:23.462Z,5.17
2019-02-24T08:13:23.989Z,5.23
2019-02-24T08:14:24.404Z,5.29
2019-02-24T08:15:24.706Z,5.36
2019-02-24T08:16:24.926Z,5.43
2019-02-24T08:17:25.240Z,5.51
2019-02-24T08:18:25.356Z,5.60
2019-02-24T08:19:25.573Z,5.70
2019-02-24T08:20:25.974Z,5.80
2019-02-24T08:21:25.878Z,5.90
2019-02-24T08:22:26.397Z,6.00
2019-02-24T08:23:26.397Z,6.09
2019-02-24T08:24:29.112Z,6.16
2019-02-24T08:25:27.134Z,6.24
2019-02-24T08:26:26.826Z,6.31
2019-02-24T08:27:27.559Z,6.37
2019-02-24T08:28:27.969Z,6.44
2019-02-24T08:29:28.536Z,6.46
2019-02-24T08:30:28.910Z,6.50
2019-02-24T08:31:28.609Z,6.55
2019-02-24T08:32:29.129Z,6.60
2019-02-24T08:33:28.925Z,6.63
2019-02-24T08:34:29.354Z,6.66
2019-02-24T08:35:29.956Z,6.71
2019-02-24T08:36:29.464Z,6.79
2019-02-24T08:37:30.080Z,6.87
2019-02-24T08:38:29.876Z,6.97
2019-02-24T08:39:30.409Z,7.11
2019-02-24T08:40:30.406Z,7.29
2019-02-24T08:41:30.208Z,7.51
2019-02-24T08:42:30.622Z,7.75
2019-02-24T08:43:31.705Z,7.98
2019-02-24T08:44:31.878Z,8.24
2019-02-24T08:45:31.873Z,8.52
2019-02-24T08:46:32.617Z,8.76
2019-02-24T08:47:32.460Z,9.01
2019-02-24T08:48:33.019Z,9.17
2019-02-24T08:49:33.033Z,9.24
2019-02-24T08:50:33.131Z,9.28
2019-02-24T08:51:33.037Z,9.33
2019-02-24T08:52:32.736Z,9.44
2019-02-24T08:53:33.152Z,9.57
2019-02-24T08:54:33.581Z,9.69
2019-02-24T08:55:34.092Z,9.77
2019-02-24T08:56:34.300Z,9.81
2019-02-24T08:57:34.816Z,9.87
2019-02-24T08:58:35.075Z,9.95
2019-02-24T08:59:35.785Z,10.04
2019-02-24T09:00:35.964Z,10.16
2019-02-24T09:01:35.972Z,10.25
2019-02-24T09:02:35.775Z,10.24
2019-02-24T09:03:36.085Z,10.25
2019-02-24T09:04:36.305Z,10.25
2019-02-24T09:05:36.613Z,10.27
2019-02-24T09:06:36.820Z,10.36
2019-02-24T09:07:37.038Z,10.46
2019-02-24T09:08:37.447Z,10.58
2019-02-24T09:09:37.641Z,10.70
2019-02-24T09:10:37.982Z,10.82
2019-02-24T09:11:38.257Z,10.93
2019-02-24T09:12:38.619Z,11.06
2019-02-24T09:13:39.057Z,11.19
2019-02-24T09:14:39.438Z,11.32
2019-02-24T09:15:39.857Z,11.46
2019-02-24T09:16:40.163Z,11.87
2019-02-24T09:17:40.476Z,11.88
2019-02-24T09:18:40.481Z,11.75
2019-02-24T09:19:40.863Z,11.61
2019-02-24T09:20:41.329Z,11.40
2019-02-24T09:21:41.359Z,11.21
2019-02-24T09:22:42.149Z,10.95
2019-02-24T09:23:42.402Z,10.70
2019-02-24T09:24:41.900Z,10.46
2019-02-24T09:25:42.049Z,10.23
2019-02-24T09:26:42.136Z,9.49
2019-02-24T09:27:42.323Z,9.49
2019-02-24T09:28:42.491Z,9.52
2019-02-24T09:29:42.762Z,9.62
2019-02-24T09:30:43.217Z,9.76
2019-02-24T09:31:43.496Z,9.91
2019-02-24T09:32:43.848Z,10.62
2019-02-24T09:33:44.141Z,10.65
2019-02-24T09:34:44.424Z,11.12
2019-02-24T09:35:44.720Z,11.22
2019-02-24T09:37:45.729Z,11.82
2019-02-24T09:38:45.735Z,11.95
2019-02-24T09:39:46.365Z,11.97
2019-02-24T09:40:46.267Z,11.90
2019-02-24T09:41:46.571Z,11.93
2019-02-24T09:42:46.989Z,11.95
2019-02-24T09:43:47.506Z,11.84
2019-02-24T09:45:47.538Z,11.72
2019-02-24T09:46:48.196Z,11.47
2019-02-24T09:47:48.046Z,11.29
2019-02-24T09:48:48.256Z,11.13
2019-02-24T09:49:48.672Z,11.01
2019-02-24T09:50:51.429Z,10.87
2019-02-24T09:51:48.995Z,10.78
2019-02-24T09:52:49.317Z,10.67
2019-02-24T09:53:49.524Z,10.60
2019-02-24T09:54:49.833Z,10.62
2019-02-24T09:55:50.454Z,10.67
2019-02-24T09:56:50.575Z,10.70
2019-02-24T09:57:50.579Z,10.76
2019-02-24T09:58:50.581Z,10.83
2019-02-24T09:59:50.785Z,10.94
2019-02-24T10:00:50.894Z,10.94
2019-02-24T10:01:51.242Z,10.97
2019-02-24T10:02:51.727Z,10.99
2019-02-24T10:03:51.599Z,10.48
2019-02-24T10:04:52.150Z,10.51
2019-02-24T10:05:52.171Z,10.55
2019-02-24T10:06:52.379Z,10.55
2019-02-24T10:07:52.397Z,10.48
2019-02-24T10:08:52.072Z,10.38
2019-02-24T10:09:52.595Z,10.28
2019-02-24T10:10:52.602Z,10.19
2019-02-24T10:11:52.612Z,10.14
2019-02-24T10:12:52.512Z,10.11
2019-02-24T10:13:53.542Z,10.18
2019-02-24T10:14:52.828Z,10.22
2019-02-24T10:15:53.146Z,10.33
2019-02-24T10:16:52.909Z,10.43
2019-02-24T10:17:53.771Z,10.43
2019-02-24T10:18:54.034Z,10.50
2019-02-24T10:19:54.299Z,10.81
2019-02-24T10:20:54.623Z,10.86
2019-02-24T10:21:54.945Z,10.92
2019-02-24T10:22:55.049Z,11.02
2019-02-24T10:23:54.793Z,11.09
2019-02-24T10:24:55.012Z,11.07
2019-02-24T10:25:55.463Z,11.05
2019-02-24T10:26:56.089Z,10.99
2019-02-24T10:27:55.785Z,10.91
2019-02-24T10:28:56.402Z,10.76
2019-02-24T10:29:55.781Z,10.62
2019-02-24T10:30:56.149Z,10.17
2019-02-24T10:31:57.562Z,10.24
2019-02-24T10:32:57.863Z,10.37
2019-02-24T10:33:58.279Z,10.44
2019-02-24T10:34:58.808Z,10.55
2019-02-24T10:35:58.598Z,10.64
2019-02-24T10:36:59.018Z,10.73
2019-02-24T10:37:59.774Z,10.74
2019-02-24T10:38:59.735Z,10.74
2019-02-24T10:40:00.368Z,10.72
2019-02-24T10:41:00.681Z,10.66
2019-02-24T10:42:00.793Z,10.61
2019-02-24T10:43:00.703Z,10.52
2019-02-24T10:44:01.215Z,10.42
2019-02-24T10:45:01.321Z,10.36
2019-02-24T10:46:01.848Z,10.33
2019-02-24T10:47:02.423Z,10.29
2019-02-24T10:48:02.789Z,10.24
2019-02-24T10:49:03.601Z,10.19
2019-02-24T10:50:02.789Z,10.17
2019-02-24T10:51:03.102Z,10.08
2019-02-24T10:52:03.591Z,10.01
2019-02-24T10:53:03.845Z,10.01
2019-02-24T10:54:04.249Z,10.04
2019-02-24T10:55:04.767Z,10.09
2019-02-24T10:56:04.573Z,10.10
2019-02-24T10:57:04.469Z,10.06
2019-02-24T10:58:04.693Z,10.10
2019-02-24T10:59:05.308Z,10.13
2019-02-24T11:00:05.119Z,10.19
2019-02-24T11:01:05.523Z,10.22
2019-02-24T11:02:05.425Z,10.27
2019-02-24T11:03:06.054Z,10.43
2019-02-24T11:04:06.064Z,10.86
2019-02-24T11:05:06.162Z,10.83
2019-02-24T11:06:06.471Z,10.76
2019-02-24T11:07:06.997Z,10.74
2019-02-24T11:08:07.006Z,10.94
2019-02-24T11:09:07.112Z,11.86
2019-02-24T11:10:07.147Z,11.92
2019-02-24T11:11:07.338Z,12.55
2019-02-24T11:12:08.886Z,12.87
2019-02-24T11:13:07.867Z,12.88
2019-02-24T11:14:08.271Z,12.94
2019-02-24T11:15:08.381Z,13.05
2019-02-24T11:16:08.793Z,13.60
2019-02-24T11:17:09.314Z,13.66
2019-02-24T11:18:09.320Z,13.83
2019-02-24T11:19:09.749Z,14.02
2019-02-24T11:20:09.846Z,14.21
2019-02-24T11:21:09.955Z,14.63
2019-02-24T11:22:09.974Z,14.84
2019-02-24T11:23:09.884Z,14.65
2019-02-24T11:24:10.081Z,14.56
2019-02-24T11:25:10.281Z,14.75
2019-02-24T11:26:11.011Z,14.67
2019-02-24T11:27:10.714Z,14.68
2019-02-24T11:28:11.635Z,14.22
2019-02-24T11:29:11.765Z,14.19
2019-02-24T11:30:11.341Z,13.81
2019-02-24T11:31:11.561Z,13.84
2019-02-24T11:32:11.488Z,13.81
2019-02-24T11:33:13.104Z,13.65
2019-02-24T11:34:13.118Z,13.81
2019-02-24T11:35:13.122Z,13.93
2019-02-24T11:36:13.634Z,14.25
2019-02-24T11:37:13.438Z,14.31
2019-02-24T11:38:14.059Z,14.19
2019-02-24T11:39:14.073Z,14.34
2019-02-24T11:40:14.482Z,14.34
2019-02-24T11:41:15.002Z,14.33
2019-02-24T11:42:15.103Z,14.33
2019-02-24T11:44:14.897Z,14.42
2019-02-24T11:45:15.745Z,14.87
2019-02-24T11:47:15.753Z,14.99
2019-02-24T11:48:16.271Z,15.10
2019-02-24T11:49:16.191Z,15.09
2019-02-24T11:50:16.900Z,14.72
2019-02-24T11:51:16.812Z,14.77
2019-02-24T11:52:17.219Z,14.72
2019-02-24T11:53:17.951Z,14.99
2019-02-24T11:54:18.154Z,15.39
2019-02-24T11:55:18.249Z,15.45
2019-02-24T11:56:19.663Z,15.55
2019-02-24T11:57:18.789Z,15.55
2019-02-24T11:58:18.792Z,15.18
2019-02-24T11:59:19.314Z,15.44
2019-02-24T12:00:19.431Z,15.63
2019-02-24T12:01:19.531Z,15.64
2019-02-24T12:02:19.576Z,15.69
2019-02-24T12:03:19.553Z,15.82
2019-02-24T12:04:19.139Z,15.88
2019-02-24T12:05:19.668Z,15.94
2019-02-24T12:06:19.462Z,16.14
2019-02-24T12:07:19.981Z,15.61
2019-02-24T12:08:19.887Z,15.97
2019-02-24T12:09:20.300Z,15.77
2019-02-24T12:10:20.608Z,15.86
2019-02-24T12:11:20.678Z,16.06
2019-02-24T12:12:21.242Z,16.17
2019-02-24T12:13:21.157Z,16.16
2019-02-24T12:14:21.678Z,16.44
2019-02-24T12:15:21.782Z,16.61
2019-02-24T12:16:21.758Z,16.70
2019-02-24T12:17:21.992Z,16.56
2019-02-24T12:18:22.509Z,16.58
2019-02-24T12:19:22.311Z,16.60
2019-02-24T12:20:22.835Z,16.72
2019-02-24T12:21:23.146Z,17.00
2019-02-24T12:22:22.947Z,17.20
2019-02-24T12:23:23.359Z,17.34
2019-02-24T12:24:23.882Z,17.54
2019-02-24T12:25:23.788Z,17.70
2019-02-24T12:26:24.310Z,17.47
2019-02-24T12:27:24.313Z,17.47
2019-02-24T12:28:24.420Z,17.44
2019-02-24T12:29:24.427Z,17.25
2019-02-24T12:30:24.123Z,16.93
2019-02-24T12:31:24.445Z,16.93
2019-02-24T12:32:24.663Z,16.95
2019-02-24T12:33:24.760Z,17.03
2019-02-24T12:34:24.876Z,17.07
2019-02-24T12:35:25.505Z,17.22
2019-02-24T12:36:25.069Z,17.47
2019-02-24T12:37:25.714Z,17.78
2019-02-24T12:38:25.711Z,18.05
2019-02-24T12:39:25.850Z,18.23
2019-02-24T12:40:25.393Z,18.23
2019-02-24T12:41:25.740Z,17.99
2019-02-24T12:42:26.360Z,17.83
2019-02-24T12:43:26.570Z,17.73
2019-02-24T12:44:26.386Z,17.66
2019-02-24T12:45:26.583Z,17.56
2019-02-24T12:46:27.616Z,17.49
2019-02-24T12:47:28.134Z,17.57
2019-02-24T12:48:28.338Z,17.55
2019-02-24T12:49:28.650Z,17.31
2019-02-24T12:50:28.558Z,17.31
2019-02-24T12:51:29.082Z,17.41
2019-02-24T12:52:29.389Z,17.49
2019-02-24T12:53:29.804Z,17.59
2019-02-24T12:54:30.119Z,17.79
2019-02-24T12:55:30.652Z,17.97
2019-02-24T12:56:30.649Z,17.84
2019-02-24T12:57:30.595Z,18.15
2019-02-24T12:58:31.168Z,18.32
2019-02-24T12:59:31.381Z,18.28
2019-02-24T13:00:31.496Z,18.17
2019-02-24T13:01:31.552Z,18.11
2019-02-24T13:02:31.603Z,18.12
2019-02-24T13:03:31.713Z,18.07
2019-02-24T13:04:31.731Z,18.13
2019-02-24T13:05:31.731Z,18.14
2019-02-24T13:06:31.939Z,18.23
2019-02-24T13:07:32.071Z,18.42
2019-02-24T13:08:32.361Z,18.54